createdAt,value
2022-08-17T00:00:01.709Z,6.60
2022-08-17T00:02:29.383Z,6.30
2022-08-17T00:04:58.139Z,6.70
2022-08-17T00:07:25.097Z,6.80
2022-08-17T00:09:52.049Z,6.90
2022-08-17T00:12:41.141Z,7.00
2022-08-17T00:15:08.243Z,7.00
2022-08-17T00:17:37.701Z,7.30
2022-08-17T00:20:05.503Z,7.20
2022-08-17T00:22:36.358Z,7.50
2022-08-17T00:25:09.785Z,7.80
2022-08-17T00:27:37.196Z,8.10
2022-08-17T00:30:05.991Z,7.60
2022-08-17T00:33:11.678Z,8.20
2022-08-17T00:35:31.454Z,7.80
2022-08-17T00:37:58.302Z,8.40
2022-08-17T00:40:25.265Z,7.60
2022-08-17T00:42:53.529Z,7.60
2022-08-17T00:45:20.810Z,7.00
2022-08-17T00:47:47.868Z,7.80
2022-08-17T00:50:17.307Z,7.50
2022-08-17T00:52:48.965Z,7.50
2022-08-17T00:55:16.015Z,7.80
2022-08-17T00:57:44.716Z,7.60
2022-08-17T01:00:26.860Z,7.30
2022-08-17T01:03:14.460Z,7.50
2022-08-17T01:05:42.317Z,7.20
2022-08-17T01:08:11.544Z,7.40
2022-08-17T01:10:59.140Z,7.50
2022-08-17T01:13:40.149Z,7.10
2022-08-17T01:16:18.594Z,8.20
2022-08-17T01:18:48.178Z,9.00
2022-08-17T01:21:33.503Z,7.20
2022-08-17T01:24:01.278Z,8.40
2022-08-17T01:26:28.641Z,7.90
2022-08-17T01:28:55.977Z,8.60
2022-08-17T01:31:24.939Z,7.50
2022-08-17T01:33:51.868Z,8.30
2022-08-17T01:36:18.921Z,8.20
2022-08-17T01:38:45.875Z,8.90
2022-08-17T01:41:14.579Z,8.90
2022-08-17T01:43:45.727Z,8.50
2022-08-17T01:46:16.143Z,8.30
2022-08-17T01:48:43.933Z,9.10
2022-08-17T01:51:10.887Z,8.60
2022-08-17T01:53:40.196Z,9.30
2022-08-17T01:56:10.839Z,8.20
2022-08-17T01:58:38.406Z,8.60
2022-08-17T02:01:06.313Z,8.50
2022-08-17T02:03:34.758Z,8.40
2022-08-17T02:06:02.521Z,7.60
2022-08-17T02:08:39.025Z,7.90
2022-08-17T02:11:22.938Z,7.20
2022-08-17T02:13:57.901Z,7.40
2022-08-17T02:16:37.715Z,7.40
2022-08-17T02:19:07.061Z,8.20
2022-08-17T02:21:34.584Z,8.00
2022-08-17T02:24:01.532Z,8.10
2022-08-17T02:26:28.479Z,7.90
2022-08-17T02:28:55.967Z,7.60
2022-08-17T02:31:22.883Z,8.10
2022-08-17T02:34:00.459Z,7.60
2022-08-17T02:36:35.268Z,8.60
2022-08-17T02:39:07.290Z,8.60
2022-08-17T02:41:35.338Z,7.90
2022-08-17T02:44:02.741Z,8.70
2022-08-17T02:46:31.295Z,8.60
2022-08-17T02:49:00.083Z,8.90
2022-08-17T02:51:28.266Z,8.90
2022-08-17T02:54:05.335Z,9.00
2022-08-17T02:56:42.841Z,9.40
2022-08-17T02:59:09.789Z,9.10
2022-08-17T03:01:36.815Z,8.70
2022-08-17T03:04:04.292Z,9.00
2022-08-17T03:06:32.180Z,8.50
2022-08-17T03:08:59.137Z,9.40
2022-08-17T03:11:26.290Z,8.90
2022-08-17T03:13:56.520Z,8.90
2022-08-17T03:16:23.474Z,9.20
2022-08-17T03:18:50.424Z,8.70
2022-08-17T03:21:17.379Z,8.70
2022-08-17T03:23:44.231Z,9.00
2022-08-17T03:26:15.582Z,9.00
2022-08-17T03:28:43.367Z,9.30
2022-08-17T03:31:10.320Z,9.60
2022-08-17T03:33:37.276Z,9.50
2022-08-17T03:36:04.950Z,10.30
2022-08-17T03:38:39.223Z,10.00
2022-08-17T03:41:07.351Z,9.80
2022-08-17T03:43:34.912Z,9.10
2022-08-17T03:46:28.160Z,8.90
2022-08-17T03:49:24.530Z,10.00
2022-08-17T03:52:10.334Z,9.70
2022-08-17T03:54:55.929Z,9.40
2022-08-17T03:57:23.078Z,10.00
2022-08-17T03:59:50.338Z,9.20
2022-08-17T04:02:26.099Z,10.00
2022-08-17T04:04:54.358Z,9.80
2022-08-17T04:07:22.838Z,9.90
2022-08-17T04:09:49.833Z,11.60
2022-08-17T04:12:18.139Z,10.10
2022-08-17T04:14:53.588Z,11.20
2022-08-17T04:17:24.767Z,8.90
2022-08-17T04:19:52.079Z,10.10
2022-08-17T04:22:31.184Z,10.00
2022-08-17T04:25:16.394Z,9.50
2022-08-17T04:27:43.342Z,9.40
2022-08-17T04:30:11.221Z,10.00
2022-08-17T04:33:14.631Z,9.30
2022-08-17T04:35:43.730Z,9.60
2022-08-17T04:38:12.339Z,11.40
2022-08-17T04:40:57.813Z,14.70
2022-08-17T04:43:25.575Z,15.30
2022-08-17T04:45:56.521Z,13.00
2022-08-17T04:48:35.745Z,11.30
2022-08-17T04:51:05.808Z,11.10
2022-08-17T04:53:32.949Z,10.60
2022-08-17T04:55:59.898Z,10.00
2022-08-17T04:58:26.745Z,9.80
2022-08-17T05:00:54.247Z,9.00
2022-08-17T05:03:21.260Z,8.80
2022-08-17T05:05:50.046Z,9.30
2022-08-17T05:08:18.848Z,8.60
2022-08-17T05:10:46.046Z,8.90
2022-08-17T05:13:23.706Z,8.80
2022-08-17T05:15:56.588Z,8.80
2022-08-17T05:18:24.652Z,8.90
2022-08-17T05:20:52.492Z,8.00
2022-08-17T05:23:20.615Z,8.60
2022-08-17T05:25:49.760Z,8.90
2022-08-17T05:28:18.615Z,7.80
2022-08-17T05:30:49.320Z,7.30
2022-08-17T05:33:22.138Z,7.70
2022-08-17T05:35:50.230Z,8.10
2022-08-17T05:38:18.515Z,8.40
2022-08-17T05:40:45.537Z,8.20
2022-08-17T05:43:12.785Z,8.50
2022-08-17T05:45:55.957Z,7.60
2022-08-17T05:48:39.176Z,7.40
2022-08-17T05:51:26.660Z,7.50
2022-08-17T05:54:08.864Z,7.10
2022-08-17T05:56:48.096Z,7.50
2022-08-17T05:59:44.736Z,7.00
2022-08-17T06:02:20.590Z,6.70
2022-08-17T06:04:50.605Z,6.60
2022-08-17T06:07:32.499Z,6.00
2022-08-17T06:10:02.515Z,6.00
2022-08-17T06:12:47.176Z,5.00
2022-08-17T06:15:40.133Z,5.30
2022-08-17T06:18:09.120Z,5.40
2022-08-17T06:20:43.133Z,5.50
2022-08-17T06:23:12.387Z,4.90
2022-08-17T06:25:45.136Z,6.10
2022-08-17T06:28:14.890Z,5.00
2022-08-17T06:31:00.794Z,5.70
2022-08-17T06:33:36.690Z,5.10
2022-08-17T06:36:16.038Z,5.30
2022-08-17T06:38:55.947Z,5.90
2022-08-17T06:41:52.384Z,5.00
2022-08-17T06:44:49.923Z,4.70
2022-08-17T06:47:37.165Z,4.50
2022-08-17T06:50:07.643Z,4.70
2022-08-17T06:55:26.369Z,4.50
2022-08-17T06:57:56.050Z,4.40
2022-08-17T07:00:24.799Z,4.30
2022-08-17T07:02:56.819Z,4.40
2022-08-17T07:06:00.420Z,4.90
2022-08-17T07:08:43.034Z,5.30
2022-08-17T07:11:13.355Z,5.40
2022-08-17T07:16:42.380Z,5.00
2022-08-17T07:19:10.978Z,5.10
2022-08-17T07:21:42.108Z,5.30
2022-08-17T07:24:30.174Z,4.80
2022-08-17T07:27:05.107Z,5.10
2022-08-17T07:29:33.360Z,5.30
2022-08-17T07:32:00.310Z,4.80
2022-08-17T07:34:29.045Z,5.20
2022-08-17T07:37:03.484Z,4.70
2022-08-17T07:39:30.824Z,4.50
2022-08-17T07:42:04.185Z,4.60
2022-08-17T07:44:31.239Z,4.50
2022-08-17T07:47:16.724Z,4.50
2022-08-17T07:49:46.484Z,4.00
2022-08-17T07:52:51.776Z,4.80
2022-08-17T07:55:40.652Z,4.70
2022-08-17T07:58:07.909Z,4.20
2022-08-17T08:00:34.964Z,4.20
2022-08-17T08:03:37.240Z,4.40
2022-08-17T08:06:22.212Z,3.70
2022-08-17T08:08:54.987Z,4.30
2022-08-17T08:11:33.133Z,4.80
2022-08-17T08:14:28.426Z,4.30
2022-08-17T08:17:00.802Z,3.90
2022-08-17T08:19:29.240Z,4.40
2022-08-17T08:22:07.765Z,4.70
2022-08-17T08:24:59.638Z,4.30
2022-08-17T08:27:30.375Z,3.90
2022-08-17T08:30:06.744Z,4.20
2022-08-17T08:33:17.375Z,3.90
2022-08-17T08:36:56.938Z,4.30
2022-08-17T08:39:31.293Z,4.00
2022-08-17T08:42:23.771Z,4.30
2022-08-17T08:45:04.761Z,4.00
2022-08-17T08:47:53.879Z,4.10
2022-08-17T08:50:38.075Z,4.40
2022-08-17T08:53:24.344Z,4.70
2022-08-17T08:55:51.189Z,4.40
2022-08-17T08:58:41.888Z,4.40
2022-08-17T09:01:24.579Z,4.20
2022-08-17T09:04:20.021Z,4.50
2022-08-17T09:07:02.746Z,4.30
2022-08-17T09:09:48.538Z,4.70
2022-08-17T09:12:26.138Z,4.10
2022-08-17T09:15:22.265Z,4.60
2022-08-17T09:18:59.040Z,4.60
2022-08-17T09:20:55.793Z,4.40
2022-08-17T09:23:32.683Z,4.40
2022-08-17T09:26:23.014Z,4.90
2022-08-17T09:28:52.483Z,4.70
2022-08-17T09:31:22.498Z,4.50
2022-08-17T09:36:22.052Z,4.60
2022-08-17T09:39:12.331Z,4.10
2022-08-17T09:42:03.339Z,4.70
2022-08-17T09:45:09.204Z,4.20
2022-08-17T09:47:46.822Z,4.50
2022-08-17T09:51:04.481Z,4.70
2022-08-17T09:53:07.541Z,4.70
2022-08-17T09:55:37.651Z,7.10
2022-08-17T09:58:11.875Z,5.30
2022-08-17T10:00:44.389Z,5.10
2022-08-17T10:03:29.733Z,4.10
2022-08-17T10:06:22.264Z,4.90
2022-08-17T10:09:04.788Z,4.60
2022-08-17T10:12:17.638Z,4.50
2022-08-17T10:15:07.993Z,3.70
2022-08-17T10:18:04.349Z,4.60
2022-08-17T10:20:37.646Z,4.80
2022-08-17T10:23:27.328Z,4.50
2022-08-17T10:26:15.678Z,4.90
2022-08-17T10:28:55.333Z,4.60
2022-08-17T10:31:50.130Z,4.30
2022-08-17T10:34:38.758Z,4.60
2022-08-17T10:37:22.018Z,5.50
2022-08-17T10:39:53.055Z,4.80
2022-08-17T10:42:36.429Z,5.20
2022-08-17T10:46:10.363Z,5.00
2022-08-17T10:48:40.536Z,5.40
2022-08-17T10:51:12.910Z,5.60
2022-08-17T10:53:44.154Z,5.90
2022-08-17T10:56:14.290Z,5.50
2022-08-17T11:01:32.879Z,7.00
2022-08-17T11:04:18.430Z,6.70
2022-08-17T11:06:52.297Z,6.30
2022-08-17T11:09:31.562Z,7.40
2022-08-17T11:12:27.094Z,6.80
2022-08-17T11:15:25.277Z,6.20
2022-08-17T11:18:14.963Z,4.80
2022-08-17T11:21:00.135Z,6.10
2022-08-17T11:23:55.140Z,9.30
2022-08-17T11:26:27.328Z,7.80
2022-08-17T11:29:01.738Z,6.10
2022-08-17T11:31:40.661Z,6.60
2022-08-17T11:34:19.017Z,6.70
2022-08-17T11:36:48.993Z,6.60
2022-08-17T11:39:38.233Z,6.20
2022-08-17T11:42:12.046Z,5.20
2022-08-17T11:44:57.455Z,6.60
2022-08-17T11:51:18.600Z,6.10
2022-08-17T11:53:46.166Z,6.40
2022-08-17T11:56:37.684Z,5.80
2022-08-17T11:59:41.103Z,6.50
2022-08-17T12:02:20.430Z,5.90
2022-08-17T12:05:12.874Z,6.10
2022-08-17T12:07:52.143Z,6.10
2022-08-17T12:12:48.872Z,5.60
2022-08-17T12:15:22.222Z,7.00
2022-08-17T12:17:53.859Z,6.00
2022-08-17T12:20:24.328Z,6.00
2022-08-17T12:23:01.050Z,5.50
2022-08-17T12:25:38.131Z,5.50
2022-08-17T12:28:07.664Z,5.20
2022-08-17T12:30:35.098Z,4.50
2022-08-17T12:33:03.997Z,5.10
2022-08-17T12:35:35.551Z,4.80
2022-08-17T12:38:03.933Z,5.20
2022-08-17T12:40:32.210Z,4.80
2022-08-17T12:43:08.067Z,5.00
2022-08-17T12:45:37.018Z,4.50
2022-08-17T12:48:08.005Z,4.80
2022-08-17T12:50:45.453Z,4.10
2022-08-17T12:53:16.448Z,4.40
2022-08-17T12:55:44.626Z,4.20
2022-08-17T12:58:14.494Z,4.10
2022-08-17T13:00:48.659Z,3.90
2022-08-17T13:03:21.140Z,4.10
2022-08-17T13:05:54.233Z,6.50
2022-08-17T13:08:31.730Z,7.20
2022-08-17T13:11:20.259Z,6.40
2022-08-17T13:13:50.972Z,6.40
2022-08-17T13:16:20.520Z,6.20
2022-08-17T13:19:10.316Z,7.00
2022-08-17T13:21:38.596Z,6.50
2022-08-17T13:24:11.687Z,6.30
2022-08-17T13:26:41.321Z,7.20
2022-08-17T13:29:32.813Z,6.60
2022-08-17T13:32:13.444Z,7.40
2022-08-17T13:35:12.880Z,6.40
2022-08-17T13:37:33.442Z,7.10
2022-08-17T13:40:09.614Z,6.90
2022-08-17T13:42:50.215Z,6.80
2022-08-17T13:45:36.301Z,7.60
2022-08-17T13:48:13.752Z,6.20
2022-08-17T13:50:43.131Z,7.30
2022-08-17T13:53:16.484Z,7.60
2022-08-17T13:56:37.932Z,7.80
2022-08-17T13:59:03.281Z,7.40
2022-08-17T14:01:41.307Z,6.50
2022-08-17T14:04:13.512Z,6.90
2022-08-17T14:06:59.575Z,8.30
2022-08-17T14:09:32.445Z,7.90
2022-08-17T14:12:02.550Z,7.50
2022-08-17T14:14:29.820Z,7.50
2022-08-17T14:16:57.652Z,7.00
2022-08-17T14:19:25.556Z,7.30
2022-08-17T14:21:59.070Z,7.80
2022-08-17T14:24:29.566Z,7.60
2022-08-17T14:26:56.746Z,6.70
2022-08-17T14:29:25.850Z,6.80
2022-08-17T14:31:54.278Z,6.00
2022-08-17T14:34:23.095Z,6.50
2022-08-17T14:36:51.438Z,6.30
2022-08-17T14:39:18.762Z,6.60
2022-08-17T14:41:45.917Z,5.80
2022-08-17T14:44:13.483Z,6.50
2022-08-17T14:46:41.157Z,5.80
2022-08-17T14:49:09.319Z,5.80
2022-08-17T14:51:44.022Z,6.10
2022-08-17T14:54:33.389Z,6.00
2022-08-17T14:57:16.143Z,5.30
2022-08-17T14:59:50.672Z,5.60
2022-08-17T15:02:22.538Z,5.20
2022-08-17T15:05:01.990Z,5.10
2022-08-17T15:07:30.658Z,5.00
2022-08-17T15:10:00.732Z,5.30
2022-08-17T15:12:32.317Z,5.30
2022-08-17T15:15:01.155Z,4.70
2022-08-17T15:17:44.661Z,4.90
2022-08-17T15:20:19.259Z,4.90
2022-08-17T15:22:49.970Z,4.70
2022-08-17T15:25:17.908Z,4.70
2022-08-17T15:27:45.103Z,4.80
2022-08-17T15:30:12.912Z,4.40
2022-08-17T15:32:41.343Z,5.20
2022-08-17T15:35:18.086Z,4.30
2022-08-17T15:37:45.344Z,4.20
2022-08-17T15:40:13.091Z,4.40
2022-08-17T15:42:41.185Z,4.70
2022-08-17T15:45:10.901Z,4.20
2022-08-17T15:47:38.461Z,4.40
2022-08-17T15:50:06.740Z,4.10
2022-08-17T15:52:38.302Z,4.10
2022-08-17T15:55:06.379Z,3.90
2022-08-17T15:57:34.048Z,4.40
2022-08-17T16:00:01.273Z,3.60
2022-08-17T16:03:32.004Z,4.40
2022-08-17T16:05:22.027Z,4.40
2022-08-17T16:07:52.284Z,4.20
2022-08-17T16:10:19.927Z,4.50
2022-08-17T16:12:48.678Z,4.30
2022-08-17T16:15:16.486Z,4.30
2022-08-17T16:17:43.568Z,4.20
2022-08-17T16:20:19.928Z,4.30
2022-08-17T16:22:48.281Z,4.30
2022-08-17T16:25:19.014Z,4.00
2022-08-17T16:27:47.048Z,4.70
2022-08-17T16:30:17.663Z,4.30
2022-08-17T16:32:47.335Z,5.10
2022-08-17T16:35:18.378Z,4.50
2022-08-17T16:37:45.554Z,4.30
2022-08-17T16:40:13.908Z,4.80
2022-08-17T16:42:40.997Z,4.20
2022-08-17T16:45:16.944Z,4.30
2022-08-17T16:47:44.059Z,4.40
2022-08-17T16:50:12.819Z,5.00
2022-08-17T16:52:40.113Z,4.90
2022-08-17T16:55:08.489Z,4.70
2022-08-17T16:57:37.642Z,5.20
2022-08-17T17:00:15.486Z,4.70
2022-08-17T17:02:46.938Z,4.70
2022-08-17T17:05:19.130Z,4.80
2022-08-17T17:07:55.632Z,4.30
2022-08-17T17:10:24.794Z,4.70
2022-08-17T17:13:02.247Z,5.30
2022-08-17T17:15:55.405Z,5.10
2022-08-17T17:18:54.763Z,5.50
2022-08-17T17:21:23.471Z,5.50
2022-08-17T17:23:59.827Z,5.70
2022-08-17T17:26:59.218Z,5.50
2022-08-17T17:29:47.671Z,5.70
2022-08-17T17:32:21.893Z,5.70
2022-08-17T17:34:53.800Z,5.90
2022-08-17T17:37:35.092Z,6.20
2022-08-17T17:40:12.182Z,5.50
2022-08-17T17:42:40.275Z,6.60
2022-08-17T17:45:21.101Z,6.20
2022-08-17T17:47:48.429Z,6.20
2022-08-17T17:50:17.294Z,6.20
2022-08-17T17:52:53.760Z,6.40
2022-08-17T17:55:39.241Z,5.70
2022-08-17T17:58:18.171Z,5.60
2022-08-17T18:00:49.240Z,6.40
2022-08-17T18:03:32.949Z,5.70
2022-08-17T18:06:18.645Z,5.90
2022-08-17T18:09:03.898Z,6.50
2022-08-17T18:11:43.120Z,6.00
2022-08-17T18:14:16.544Z,6.20
2022-08-17T18:16:46.501Z,6.50
2022-08-17T18:19:15.045Z,6.90
2022-08-17T18:21:44.827Z,6.10
2022-08-17T18:24:12.282Z,6.30
2022-08-17T18:26:55.120Z,6.60
2022-08-17T18:29:36.386Z,6.50
2022-08-17T18:32:34.008Z,6.40
2022-08-17T18:35:27.775Z,6.90
2022-08-17T18:37:57.755Z,6.40
2022-08-17T18:40:33.810Z,6.50
2022-08-17T18:43:00.626Z,7.40
2022-08-17T18:45:44.972Z,7.70
2022-08-17T18:48:19.922Z,6.80
2022-08-17T18:50:47.178Z,6.60
2022-08-17T18:53:33.418Z,6.90
2022-08-17T18:56:22.141Z,7.00
2022-08-17T18:58:53.841Z,7.00
2022-08-17T19:01:21.376Z,7.70
2022-08-17T19:03:50.162Z,7.70
2022-08-17T19:06:25.756Z,7.50
2022-08-17T19:08:53.006Z,7.40
2022-08-17T19:11:30.176Z,7.60
2022-08-17T19:14:01.474Z,7.80
2022-08-17T19:16:43.927Z,8.10
2022-08-17T19:19:15.313Z,7.50
2022-08-17T19:21:45.500Z,7.90
2022-08-17T19:24:21.016Z,7.90
2022-08-17T19:26:58.338Z,7.20
2022-08-17T19:29:34.309Z,7.10
2022-08-17T19:32:01.293Z,8.10
2022-08-17T19:34:34.002Z,6.70
2022-08-17T19:37:32.638Z,6.70
2022-08-17T19:40:41.775Z,7.10
2022-08-17T19:43:29.000Z,7.40
2022-08-17T19:46:12.467Z,7.50
2022-08-17T19:48:58.023Z,7.70
2022-08-17T19:51:46.065Z,7.20
2022-08-17T19:54:35.109Z,8.00
2022-08-17T19:57:19.696Z,8.00
2022-08-17T20:00:13.579Z,7.60
2022-08-17T20:02:58.448Z,6.90
2022-08-17T20:06:13.469Z,7.40
2022-08-17T20:08:54.296Z,7.80
2022-08-17T20:11:46.441Z,7.80
2022-08-17T20:14:19.947Z,7.10
2022-08-17T20:16:46.996Z,8.30
2022-08-17T20:19:16.854Z,9.20
2022-08-17T20:21:53.917Z,8.50
2022-08-17T20:24:41.972Z,8.80
2022-08-17T20:27:21.072Z,9.00
2022-08-17T20:30:12.117Z,9.30
2022-08-17T20:32:55.750Z,9.70
2022-08-17T20:35:27.733Z,9.50
2022-08-17T20:37:57.817Z,8.90
2022-08-17T20:40:32.234Z,9.10
2022-08-17T20:42:59.690Z,8.80
2022-08-17T20:45:27.354Z,10.10
2022-08-17T20:48:35.067Z,9.90
2022-08-17T20:50:53.708Z,9.60
2022-08-17T20:53:56.188Z,9.50
2022-08-17T20:56:45.250Z,9.80
2022-08-17T20:59:45.156Z,10.10
2022-08-17T21:02:19.533Z,9.80
2022-08-17T21:04:56.667Z,10.10
2022-08-17T21:07:33.116Z,10.50
2022-08-17T21:10:35.793Z,10.70
2022-08-17T21:13:12.597Z,9.80
2022-08-17T21:15:48.641Z,9.90
2022-08-17T21:18:38.879Z,10.00
2022-08-17T21:21:32.018Z,10.90
2022-08-17T21:24:14.111Z,10.60
2022-08-17T21:27:09.048Z,10.30
2022-08-17T21:29:40.360Z,10.90
2022-08-17T21:32:09.521Z,11.20
2022-08-17T21:34:42.862Z,11.40
2022-08-17T21:37:19.131Z,10.90
2022-08-17T21:39:52.658Z,11.60
2022-08-17T21:42:55.110Z,12.20
2022-08-17T21:45:35.236Z,12.30
2022-08-17T21:48:26.049Z,12.20
2022-08-17T21:51:15.563Z,12.40
2022-08-17T21:53:42.509Z,12.40
2022-08-17T21:56:10.983Z,13.90
2022-08-17T21:58:40.518Z,14.00
2022-08-17T22:01:20.085Z,13.30
2022-08-17T22:03:54.203Z,12.40
2022-08-17T22:06:26.480Z,12.30
2022-08-17T22:09:15.103Z,15.20
2022-08-17T22:11:55.876Z,15.20
2022-08-17T22:14:51.551Z,14.70
2022-08-17T22:17:19.365Z,13.90
2022-08-17T22:20:00.174Z,13.80
2022-08-17T22:22:30.162Z,12.90
2022-08-17T22:25:21.245Z,12.40
2022-08-17T22:27:50.442Z,12.40
2022-08-17T22:30:41.392Z,12.40
2022-08-17T22:33:33.841Z,12.50
2022-08-17T22:36:24.852Z,13.00
2022-08-17T22:39:17.404Z,13.70
2022-08-17T22:41:48.344Z,14.50
2022-08-17T22:44:24.514Z,15.60
2022-08-17T22:47:11.786Z,16.20
2022-08-17T22:49:53.991Z,15.20
2022-08-17T22:53:00.607Z,17.20
2022-08-17T22:55:46.621Z,16.50
2022-08-17T22:58:34.156Z,15.30
2022-08-17T23:01:32.577Z,13.80
2022-08-17T23:04:33.091Z,12.90
2022-08-17T23:07:00.025Z,12.90
2022-08-17T23:09:27.080Z,13.70
2022-08-17T23:11:58.973Z,14.30
2022-08-17T23:14:31.728Z,15.00
2022-08-17T23:17:02.200Z,15.20
2022-08-17T23:19:31.595Z,14.90
2022-08-17T23:21:59.547Z,14.40
2022-08-17T23:24:30.615Z,16.70
2022-08-17T23:26:58.360Z,16.00
2022-08-17T23:29:26.227Z,16.00
2022-08-17T23:31:53.109Z,15.90
2022-08-17T23:34:20.126Z,15.90
2022-08-17T23:36:52.510Z,17.30
2022-08-17T23:39:24.355Z,19.20
2022-08-17T23:41:55.521Z,18.70
2022-08-17T23:44:25.433Z,21.10
2022-08-17T23:46:52.895Z,19.90
2022-08-17T23:49:19.948Z,21.10
2022-08-17T23:51:47.343Z,20.80
2022-08-17T23:54:37.566Z,21.50
2022-08-17T23:57:05.100Z,19.30
2022-08-17T23:59:34.070Z,18.80
